Time;durP1;ratioP1;P1;durP2;ratioP2;P2;SDS_P1;SDS_P2;PMS_P1;PMS_P2;Temp;Humidity;BMP_temperature;BMP_pressure;BME280_temperature;BME280_humidity;BME280_pressure;Samples;Min_cycle;Max_cycle;Signal;HPM_P1;HPM_P2
2023/11/23 00:07:23;;;;;;;32.60;21.70;;;;;;;-5.20;95.73;100030.11;438801;1249;140337;-67
2023/11/23 00:17:30;;;;;;;27.70;19.80;;;;;;;-4.98;96.78;100000.22;436098;1250;140158;-66
2023/11/23 00:27:37;;;;;;;26.60;20.10;;;;;;;-4.86;96.62;100002.33;435606;1250;140395;-66
2023/11/23 00:37:44;;;;;;;25.90;19.00;;;;;;;-4.73;97.24;99974.21;437387;1250;141112;-66
2023/11/23 00:47:50;;;;;;;25.90;20.30;;;;;;;-4.64;97.33;99945.05;435597;1251;139755;-65
2023/11/23 00:57:57;;;;;;;22.90;18.40;;;;;;;-4.55;97.93;99924.91;435837;1254;140105;-66
2023/11/23 01:08:04;;;;;;;25.20;18.90;;;;;;;-4.38;98.71;99908.90;436169;1250;140694;-66
2023/11/23 01:18:10;;;;;;;23.50;18.10;;;;;;;-4.22;99.20;99886.70;435811;1251;140347;-66
2023/11/23 01:28:16;;;;;;;24.30;19.20;;;;;;;-4.09;99.28;99866.70;437298;1254;140006;-66
2023/11/23 01:38:22;;;;;;;20.30;16.80;;;;;;;-3.99;99.32;99840.20;436189;1253;139599;-66
2023/11/23 01:48:31;;;;;;;19.00;15.20;;;;;;;-3.91;99.38;99832.48;436572;1250;140892;-66
2023/11/23 01:58:38;;;;;;;20.40;16.30;;;;;;;-3.84;99.41;99811.96;435909;1248;142910;-65
2023/11/23 02:08:44;;;;;;;23.40;19.70;;;;;;;-3.77;99.63;99790.40;435727;1251;139779;-66
2023/11/23 02:18:50;;;;;;;25.80;18.80;;;;;;;-3.71;99.82;99758.39;435696;1253;139741;-66
2023/11/23 02:28:57;;;;;;;24.50;19.70;;;;;;;-3.66;100.00;99725.52;435728;1253;140769;-66
2023/11/23 02:39:04;;;;;;;23.10;16.90;;;;;;;-3.62;100.00;99717.80;435940;1254;139812;-66
2023/11/23 02:49:10;;;;;;;21.10;17.20;;;;;;;-3.55;100.00;99694.84;436552;1250;140251;-66
2023/11/23 02:59:16;;;;;;;24.00;16.80;;;;;;;-3.44;100.00;99669.10;435699;1253;141165;-65
2023/11/23 03:09:23;;;;;;;26.20;18.40;;;;;;;-3.37;100.00;99652.98;436134;1254;139780;-65
2023/11/23 03:19:29;;;;;;;24.80;19.60;;;;;;;-3.29;100.00;99643.69;438114;1253;140520;-67
2023/11/23 03:29:36;;;;;;;20.50;15.90;;;;;;;-3.21;100.00;99611.09;437390;1250;140952;-66
2023/11/23 03:39:42;;;;;;;23.30;16.20;;;;;;;-3.09;100.00;99578.46;437296;1254;139698;-66
2023/11/23 03:49:49;;;;;;;24.70;18.20;;;;;;;-2.98;100.00;99554.91;436403;1253;140494;-66
2023/11/23 03:59:55;;;;;;;22.70;15.10;;;;;;;-2.88;100.00;99524.50;438392;1251;139775;-65
2023/11/23 04:10:03;;;;;;;22.80;17.40;;;;;;;-2.76;100.00;99497.47;435994;1253;140293;-65
2023/11/23 04:20:11;;;;;;;21.80;17.40;;;;;;;-2.62;100.00;99474.35;436611;1254;139642;-66
2023/11/23 04:30:17;;;;;;;24.60;16.90;;;;;;;-2.49;100.00;99440.23;437947;1253;140698;-66
2023/11/23 04:40:24;;;;;;;21.80;16.60;;;;;;;-2.37;100.00;99398.77;436569;1250;140585;-65
2023/11/23 04:50:30;;;;;;;22.10;17.50;;;;;;;-2.27;100.00;99362.97;436225;1253;139730;-69
2023/11/23 05:00:36;;;;;;;21.40;16.80;;;;;;;-2.15;100.00;99359.17;436003;1249;139684;-67
2023/11/23 05:10:43;;;;;;;19.80;15.10;;;;;;;-2.02;100.00;99338.23;436304;1250;139957;-65
2023/11/23 05:20:50;;;;;;;21.30;14.20;;;;;;;-1.91;100.00;99308.02;435817;1253;140054;-67
2023/11/23 05:30:56;;;;;;;21.10;15.00;;;;;;;-1.81;100.00;99275.41;436471;1252;141870;-68
2023/11/23 05:41:03;;;;;;;18.30;13.40;;;;;;;-1.75;100.00;99246.98;437098;1253;139836;-65
2023/11/23 05:51:09;;;;;;;17.90;12.90;;;;;;;-1.68;100.00;99228.31;438142;1252;139487;-66
2023/11/23 06:01:16;;;;;;;15.00;12.20;;;;;;;-1.62;100.00;99209.31;437735;1253;139986;-66
2023/11/23 06:11:22;;;;;;;18.30;14.10;;;;;;;-1.57;100.00;99176.23;437152;1252;140011;-69
2023/11/23 06:21:27;;;;;;;;;;;;;;;-1.51;100.00;99157.74;436377;1251;139597;-65
2023/11/23 06:31:34;;;;;;;19.10;13.80;;;;;;;-1.44;100.00;99160.88;437563;1250;125806;-65
2023/11/23 06:41:40;;;;;;;19.00;13.70;;;;;;;-1.37;100.00;99140.98;437766;1252;141421;-66
2023/11/23 06:51:47;;;;;;;18.80;13.90;;;;;;;-1.31;100.00;99147.70;435947;1248;139496;-66
2023/11/23 07:01:51;;;;;;;;;;;;;;;-1.20;100.00;99128.06;436034;1250;140516;-66
2023/11/23 07:11:58;;;;;;;18.70;13.50;;;;;;;-1.09;100.00;99103.77;436315;1249;126957;-65
2023/11/23 07:22:02;;;;;;;;;;;;;;;-1.00;100.00;99088.92;436178;1248;139865;-67
2023/11/23 07:32:09;;;;;;;18.10;13.80;;;;;;;-0.95;100.00;99084.50;436712;1253;126310;-67
2023/11/23 07:42:16;;;;;;;20.20;14.90;;;;;;;-0.96;100.00;99072.70;436029;1254;140579;-67
2023/11/23 07:52:25;;;;;;;18.40;13.10;;;;;;;-0.96;100.00;99056.89;436727;1253;141176;-67
2023/11/23 08:02:30;;;;;;;;;;;;;;;-0.94;100.00;99037.57;436284;1253;140017;-66
2023/11/23 08:12:36;;;;;;;17.20;12.90;;;;;;;-0.90;100.00;99020.81;436758;1253;126213;-65
2023/11/23 08:22:43;;;;;;;20.60;15.80;;;;;;;-0.75;100.00;98989.46;436265;1254;141964;-66
2023/11/23 08:32:47;;;;;;;;;;;;;;;-0.56;100.00;98981.21;436444;1253;139683;-66
2023/11/23 08:42:54;;;;;;;22.60;15.40;;;;;;;-0.40;100.00;98974.92;436399;1253;126404;-67
2023/11/23 08:53:01;;;;;;;21.00;15.80;;;;;;;-0.24;100.00;98976.34;436454;1253;140089;-66
2023/11/23 09:03:09;;;;;;;20.80;13.20;;;;;;;-0.07;100.00;98947.98;437353;1253;139960;-66
2023/11/23 09:13:16;;;;;;;17.70;14.30;;;;;;;0.06;100.00;98925.88;438976;1253;140282;-66
2023/11/23 09:23:23;;;;;;;19.30;13.20;;;;;;;0.22;100.00;98901.79;436780;1254;141031;-66
2023/11/23 09:33:32;;;;;;;17.60;14.00;;;;;;;0.36;100.00;98883.26;436967;1253;139303;-66
2023/11/23 09:43:39;;;;;;;17.50;13.50;;;;;;;0.54;100.00;98851.14;436540;1253;141218;-66
2023/11/23 09:53:48;;;;;;;17.50;11.80;;;;;;;0.68;100.00;98824.48;436492;1253;139553;-65
2023/11/23 10:03:56;;;;;;;15.30;11.00;;;;;;;0.77;100.00;98789.88;437502;1252;139781;-65
2023/11/23 10:14:02;;;;;;;14.00;10.10;;;;;;;0.86;100.00;98779.55;436781;1253;139851;-65
2023/11/23 10:24:11;;;;;;;15.20;10.30;;;;;;;0.96;100.00;98754.52;436561;1253;140567;-65
2023/11/23 10:34:18;;;;;;;15.00;11.40;;;;;;;1.08;100.00;98729.94;437600;1253;139634;-65
2023/11/23 10:44:28;;;;;;;14.30;11.60;;;;;;;1.23;100.00;98730.40;436399;1253;139645;-64
2023/11/23 10:54:36;;;;;;;15.10;12.80;;;;;;;1.37;100.00;98727.94;436761;1253;139802;-64
2023/11/23 11:04:43;;;;;;;17.80;13.90;;;;;;;1.52;100.00;98714.95;436846;1253;139968;-65
2023/11/23 11:14:53;;;;;;;;;;;;;;;1.66;100.00;98693.66;437421;1251;139851;-66
2023/11/23 11:25:01;;;;;;;15.30;11.30;;;;;;;1.82;100.00;98688.51;436682;1253;126106;-66
2023/11/23 11:35:10;;;;;;;12.50;9.50;;;;;;;1.99;100.00;98665.36;436957;1253;140538;-65
2023/11/23 11:45:17;;;;;;;11.90;9.00;;;;;;;2.18;100.00;98637.94;436581;1251;140500;-65
2023/11/23 11:55:24;;;;;;;11.70;9.10;;;;;;;2.38;100.00;98628.23;436291;1253;220018;-65
2023/11/23 12:05:31;;;;;;;11.00;8.60;;;;;;;2.53;100.00;98595.77;436603;1253;139254;-65
2023/11/23 12:15:41;;;;;;;12.00;10.40;;;;;;;2.60;100.00;98557.06;436902;1253;139481;-65
2023/11/23 12:25:48;;;;;;;12.10;8.70;;;;;;;2.68;100.00;98544.58;436521;1251;141193;-65
2023/11/23 12:35:55;;;;;;;9.90;8.30;;;;;;;2.77;100.00;98524.80;436330;1251;140951;-65
2023/11/23 12:46:01;;;;;;;12.60;8.50;;;;;;;2.85;100.00;98498.67;436888;1252;139523;-65
2023/11/23 12:56:10;;;;;;;10.30;8.60;;;;;;;2.95;100.00;98480.20;436285;1254;141177;-65
2023/11/23 13:06:16;;;;;;;12.00;9.10;;;;;;;3.04;100.00;98474.89;436867;1251;139705;-66
2023/11/23 13:16:24;;;;;;;12.10;10.60;;;;;;;3.15;100.00;98466.56;437811;1251;139464;-63
2023/11/23 13:26:31;;;;;;;10.40;9.00;;;;;;;3.18;100.00;98445.13;436985;1250;139569;-65
2023/11/23 13:36:37;;;;;;;10.30;9.00;;;;;;;3.19;100.00;98434.86;436755;1250;140684;-65
2023/11/23 13:46:45;;;;;;;9.30;8.00;;;;;;;3.25;100.00;98397.57;436186;1251;139849;-65
2023/11/23 13:56:50;;;;;;;;;;;;;;;3.32;100.00;98374.86;437187;1253;139387;-65
2023/11/23 14:06:57;;;;;;;9.60;6.70;;;;;;;3.37;100.00;98353.15;436826;1250;125836;-66
2023/11/23 14:17:03;;;;;;;9.60;8.30;;;;;;;3.42;100.00;98331.45;439391;1251;140087;-64
2023/11/23 14:27:10;;;;;;;9.50;8.20;;;;;;;3.49;100.00;98323.80;438127;1253;139756;-65
2023/11/23 14:37:17;;;;;;;9.20;7.90;;;;;;;3.59;100.00;98316.17;437360;1252;139196;-65
2023/11/23 14:47:27;;;;;;;15.50;8.40;;;;;;;3.69;100.00;98311.27;435966;1253;139806;-64
2023/11/23 14:57:33;;;;;;;8.50;6.60;;;;;;;3.81;100.00;98291.60;436120;1254;139625;-65
2023/11/23 15:07:40;;;;;;;8.30;7.20;;;;;;;3.90;100.00;98262.45;436153;1250;140495;-65
2023/11/23 15:17:48;;;;;;;8.20;6.60;;;;;;;3.96;100.00;98237.94;436102;1249;139168;-64
2023/11/23 15:27:56;;;;;;;10.00;8.80;;;;;;;3.87;100.00;98216.42;437953;1248;138831;-65
2023/11/23 15:38:03;;;;;;;8.50;7.60;;;;;;;3.64;100.00;98196.83;437460;1253;139382;-66
2023/11/23 15:48:12;;;;;;;9.50;8.40;;;;;;;3.44;100.00;98170.64;437482;1251;140233;-65
2023/11/23 15:58:19;;;;;;;8.10;7.30;;;;;;;3.31;100.00;98147.80;436507;1250;141030;-66
2023/11/23 16:08:25;;;;;;;8.60;6.60;;;;;;;3.27;100.00;98137.48;436179;1248;139466;-65
2023/11/23 16:18:35;;;;;;;9.40;7.40;;;;;;;3.27;100.00;98110.86;437074;1251;140179;-65
2023/11/23 16:28:44;;;;;;;10.10;9.10;;;;;;;3.25;100.00;98080.52;437257;1250;140643;-65
2023/11/23 16:38:50;;;;;;;10.80;9.70;;;;;;;3.24;100.00;98052.25;436965;1251;139050;-65
2023/11/23 16:48:57;;;;;;;10.30;9.20;;;;;;;3.22;100.00;98023.27;436797;1250;140264;-66
2023/11/23 16:59:04;;;;;;;10.90;9.40;;;;;;;3.20;100.00;98000.25;436970;1249;140781;-66
2023/11/23 17:09:17;;;;;;;12.60;11.00;;;;;;;3.17;100.00;97958.03;436904;1248;139579;-65
2023/11/23 17:19:26;;;;;;;10.20;9.10;;;;;;;3.19;100.00;97920.76;436566;1251;139601;-65
2023/11/23 17:29:33;;;;;;;10.30;9.10;;;;;;;3.25;100.00;97886.66;436474;1253;141329;-64
2023/11/23 17:39:38;;;;;;;;;;;;;;;3.29;100.00;97841.11;437017;1248;139131;-65
2023/11/23 17:49:45;;;;;;;11.90;10.60;;;;;;;3.34;100.00;97795.14;436437;1251;125653;-65
2023/11/23 17:59:52;;;;;;;13.60;10.70;;;;;;;3.36;100.00;97783.23;436370;1252;140769;-65
2023/11/23 18:10:02;;;;;;;12.90;11.60;;;;;;;3.41;100.00;97777.08;436680;1248;140228;-63
2023/11/23 18:20:13;;;;;;;16.50;14.80;;;;;;;3.48;100.00;97750.64;436361;1250;139857;-64
2023/11/23 18:30:20;;;;;;;12.70;11.40;;;;;;;3.58;100.00;97720.93;437292;1248;139731;-66
2023/11/23 18:40:26;;;;;;;11.30;10.20;;;;;;;3.73;100.00;97694.70;436254;1249;139945;-65
2023/11/23 18:50:32;;;;;;;12.70;9.60;;;;;;;3.85;100.00;97665.20;436422;1252;139451;-65
2023/11/23 19:00:39;;;;;;;11.90;10.60;;;;;;;3.97;100.00;97628.38;436403;1251;141147;-64
2023/11/23 19:10:45;;;;;;;8.80;6.70;;;;;;;4.07;100.00;97589.46;436654;1252;139930;-64
2023/11/23 19:20:56;;;;;;;13.10;8.80;;;;;;;4.18;100.00;97544.02;436553;1251;139496;-65
2023/11/23 19:31:04;;;;;;;14.00;11.00;;;;;;;4.30;100.00;97543.50;436711;1253;141113;-64
2023/11/23 19:41:15;;;;;;;12.60;11.30;;;;;;;4.43;100.00;97527.02;436941;1252;139845;-65
2023/11/23 19:51:28;;;;;;;13.30;10.40;;;;;;;4.62;100.00;97490.95;436163;1253;139335;-65
2023/11/23 20:01:35;;;;;;;12.10;9.10;;;;;;;4.80;100.00;97467.53;436697;1251;141334;-65
2023/11/23 20:11:43;;;;;;;10.20;9.10;;;;;;;4.97;100.00;97445.29;436511;1252;139658;-65
2023/11/23 20:21:51;;;;;;;10.80;9.20;;;;;;;5.10;100.00;97412.68;436931;1252;139730;-64
2023/11/23 20:31:57;;;;;;;10.60;9.50;;;;;;;5.16;100.00;97380.30;437038;1248;139064;-65
2023/11/23 20:42:05;;;;;;;10.90;9.00;;;;;;;5.22;100.00;97349.16;436178;1249;141073;-65
2023/11/23 20:52:13;;;;;;;9.50;7.30;;;;;;;5.22;100.00;97314.70;436933;1248;139010;-63
2023/11/23 21:02:21;;;;;;;10.70;8.80;;;;;;;5.09;100.00;97291.73;436835;1251;138969;-63
2023/11/23 21:12:31;;;;;;;8.30;7.50;;;;;;;4.99;100.00;97308.09;437903;1251;140542;-64
2023/11/23 21:22:37;;;;;;;3.90;2.80;;;;;;;4.99;100.00;97408.17;436661;1248;139966;-63
2023/11/23 21:32:44;;;;;;;1.70;0.60;;;;;;;4.91;100.00;97415.86;436451;1249;139303;-62
2023/11/23 21:42:51;;;;;;;2.10;1.80;;;;;;;4.81;100.00;97423.93;436476;1252;139030;-63
2023/11/23 21:52:58;;;;;;;1.70;1.60;;;;;;;4.69;100.00;97415.62;436629;1251;140025;-63
2023/11/23 22:03:04;;;;;;;2.00;0.80;;;;;;;4.58;100.00;97426.29;437111;1252;138933;-62
2023/11/23 22:13:11;;;;;;;3.20;0.90;;;;;;;4.45;100.00;97405.37;436440;1248;138976;-65
2023/11/23 22:23:18;;;;;;;0.80;0.50;;;;;;;4.34;100.00;97405.50;436554;1253;139340;-65
2023/11/23 22:33:26;;;;;;;1.00;0.40;;;;;;;4.25;100.00;97404.95;437182;1248;139288;-66
2023/11/23 22:43:34;;;;;;;0.20;0.20;;;;;;;4.18;100.00;97398.71;436523;1248;139997;-65
2023/11/23 22:53:40;;;;;;;0.20;0.20;;;;;;;4.11;100.00;97399.40;437416;1248;139064;-68
2023/11/23 23:03:48;;;;;;;1.10;0.30;;;;;;;4.04;100.00;97360.22;436724;1252;140310;-66
2023/11/23 23:13:55;;;;;;;0.60;0.20;;;;;;;3.95;100.00;97336.66;436683;1251;138960;-66
2023/11/23 23:24:01;;;;;;;1.00;0.50;;;;;;;3.83;100.00;97316.90;437035;1251;142939;-68
2023/11/23 23:34:08;;;;;;;3.00;0.70;;;;;;;3.71;100.00;97303.77;437533;1253;138961;-65
2023/11/23 23:44:14;;;;;;;3.60;1.10;;;;;;;3.62;100.00;97320.11;437117;1251;142283;-66
2023/11/23 23:54:20;;;;;;;0.50;0.50;;;;;;;3.58;100.00;97315.07;436228;1252;187204;-65
